createdAt,value
2019-03-28T00:01:06.228Z,9.40
2019-03-28T00:03:37.458Z,9.40
2019-03-28T00:06:08.734Z,9.40
2019-03-28T00:08:40.104Z,9.30
2019-03-28T00:11:11.348Z,9.30
2019-03-28T00:13:42.516Z,9.30
2019-03-28T00:16:13.795Z,9.30
2019-03-28T00:18:45.182Z,9.30
2019-03-28T00:21:16.522Z,9.30
2019-03-28T00:23:57.296Z,9.30
2019-03-28T00:26:30.571Z,9.30
2019-03-28T00:29:02.276Z,9.30
2019-03-28T00:31:33.865Z,9.20
2019-03-28T00:34:04.995Z,9.20
2019-03-28T00:36:36.215Z,9.20
2019-03-28T00:39:08.688Z,9.20
2019-03-28T00:41:39.755Z,9.20
2019-03-28T00:44:11.444Z,9.20
2019-03-28T00:46:43.958Z,9.20
2019-03-28T00:49:15.283Z,9.20
2019-03-28T00:51:47.381Z,9.20
2019-03-28T00:54:18.739Z,9.10
2019-03-28T00:56:49.983Z,9.10
2019-03-28T00:59:21.257Z,9.20
2019-03-28T01:01:53.090Z,9.10
2019-03-28T01:04:24.259Z,9.10
2019-03-28T01:06:55.965Z,9.10
2019-03-28T01:09:27.591Z,9.00
2019-03-28T01:11:58.873Z,8.90
2019-03-28T01:14:30.378Z,8.90
2019-03-28T01:17:01.534Z,8.80
2019-03-28T01:19:33.793Z,8.80
2019-03-28T01:22:04.889Z,8.70
2019-03-28T01:24:36.235Z,8.60
2019-03-28T01:27:07.624Z,8.50
2019-03-28T01:29:38.834Z,8.40
2019-03-28T01:32:10.027Z,8.30
2019-03-28T01:34:41.241Z,8.20
2019-03-28T01:37:12.382Z,8.10
2019-03-28T01:39:44.235Z,8.10
2019-03-28T01:42:15.471Z,8.00
2019-03-28T01:44:46.591Z,7.90
2019-03-28T01:47:18.131Z,7.80
2019-03-28T01:49:49.209Z,7.70
2019-03-28T01:52:20.268Z,7.70
2019-03-28T01:54:51.471Z,7.60
2019-03-28T01:57:23.208Z,7.50
2019-03-28T01:59:54.378Z,7.40
2019-03-28T02:02:25.964Z,7.40
2019-03-28T02:04:57.075Z,7.30
2019-03-28T02:07:28.291Z,7.30
2019-03-28T02:09:59.492Z,7.40
2019-03-28T02:12:31.133Z,7.40
2019-03-28T02:15:02.517Z,7.50
2019-03-28T02:17:34.079Z,7.60
2019-03-28T02:20:05.829Z,7.60
2019-03-28T02:22:36.914Z,7.70
2019-03-28T02:25:09.585Z,7.70
2019-03-28T02:27:40.884Z,7.80
2019-03-28T02:30:12.477Z,7.80
2019-03-28T02:32:43.793Z,7.80
2019-03-28T02:35:14.956Z,7.80
2019-03-28T02:37:46.119Z,7.90
2019-03-28T02:40:17.367Z,7.90
2019-03-28T02:42:48.657Z,7.90
2019-03-28T02:45:19.867Z,7.90
2019-03-28T02:47:51.026Z,7.90
2019-03-28T02:50:22.247Z,7.90
2019-03-28T02:52:53.480Z,7.90
2019-03-28T02:55:24.773Z,7.90
2019-03-28T02:57:56.302Z,7.90
2019-03-28T03:00:27.423Z,8.00
2019-03-28T03:02:58.552Z,8.00
2019-03-28T03:05:30.308Z,8.00
2019-03-28T03:08:01.467Z,8.00
2019-03-28T03:10:32.975Z,8.10
2019-03-28T03:13:04.135Z,8.00
2019-03-28T03:15:35.479Z,8.10
2019-03-28T03:18:07.777Z,8.10
2019-03-28T03:20:39.567Z,8.10
2019-03-28T03:23:10.740Z,8.10
2019-03-28T03:25:41.912Z,8.10
2019-03-28T03:28:13.626Z,8.10
2019-03-28T03:30:44.859Z,8.10
2019-03-28T03:33:16.436Z,8.10
2019-03-28T03:35:47.646Z,8.10
2019-03-28T03:38:19.252Z,8.10
2019-03-28T03:41:09.442Z,8.10
2019-03-28T03:43:41.982Z,8.10
2019-03-28T03:46:13.129Z,8.10
2019-03-28T03:48:44.695Z,8.20
2019-03-28T03:51:15.879Z,8.20
2019-03-28T03:53:47.095Z,8.20
2019-03-28T03:56:18.213Z,8.20
2019-03-28T03:58:49.324Z,8.10
2019-03-28T04:01:20.487Z,8.10
2019-03-28T04:03:51.584Z,8.00
2019-03-28T04:06:22.725Z,8.00
2019-03-28T04:08:54.106Z,8.00
2019-03-28T04:11:25.345Z,8.00
2019-03-28T04:13:56.473Z,8.00
2019-03-28T04:16:27.753Z,8.00
2019-03-28T04:18:58.999Z,8.00
2019-03-28T04:21:30.242Z,8.00
2019-03-28T04:24:01.329Z,8.10
2019-03-28T04:26:32.523Z,8.10
2019-03-28T04:29:04.711Z,8.10
2019-03-28T04:31:36.116Z,8.10
2019-03-28T04:34:08.756Z,8.10
2019-03-28T04:36:40.850Z,8.10
2019-03-28T04:39:12.430Z,8.10
2019-03-28T04:41:43.702Z,8.10
2019-03-28T04:44:14.891Z,8.20
2019-03-28T04:46:45.959Z,8.20
2019-03-28T04:49:17.230Z,8.20
2019-03-28T04:51:48.843Z,8.20
2019-03-28T04:54:20.151Z,8.20
2019-03-28T04:56:51.377Z,8.10
2019-03-28T04:59:22.697Z,8.10
2019-03-28T05:02:02.988Z,8.10
2019-03-28T05:04:26.785Z,8.10
2019-03-28T05:06:57.974Z,8.00
2019-03-28T05:09:29.095Z,8.00
2019-03-28T05:12:00.182Z,8.00
2019-03-28T05:14:32.506Z,8.00
2019-03-28T05:17:03.734Z,8.10
2019-03-28T05:19:35.039Z,8.10
2019-03-28T05:22:06.546Z,8.10
2019-03-28T05:24:38.883Z,8.20
2019-03-28T05:27:09.976Z,8.20
2019-03-28T05:29:41.230Z,8.20
2019-03-28T05:32:12.462Z,8.20
2019-03-28T05:34:43.619Z,8.20
2019-03-28T05:37:14.957Z,8.30
2019-03-28T05:39:46.155Z,8.30
2019-03-28T05:42:17.405Z,8.40
2019-03-28T05:44:48.500Z,8.40
2019-03-28T05:47:22.137Z,8.60
2019-03-28T05:49:52.635Z,8.60
2019-03-28T05:52:24.176Z,8.70
2019-03-28T05:54:55.482Z,8.80
2019-03-28T05:57:26.830Z,8.90
2019-03-28T05:59:57.909Z,9.00
2019-03-28T06:02:29.113Z,9.10
2019-03-28T06:05:00.537Z,9.20
2019-03-28T06:07:32.191Z,9.30
2019-03-28T06:10:03.313Z,9.40
2019-03-28T06:12:34.659Z,9.60
2019-03-28T06:15:07.339Z,9.70
2019-03-28T06:17:38.930Z,9.90
2019-03-28T06:20:11.032Z,10.10
2019-03-28T06:22:42.525Z,10.30
2019-03-28T06:25:14.557Z,10.50
2019-03-28T06:27:45.808Z,10.70
2019-03-28T06:30:18.353Z,10.90
2019-03-28T06:32:49.785Z,11.20
2019-03-28T06:35:22.010Z,11.50
2019-03-28T06:37:53.355Z,11.90
2019-03-28T06:40:24.573Z,12.10
2019-03-28T06:42:55.802Z,12.40
2019-03-28T06:45:28.023Z,12.70
2019-03-28T06:47:59.176Z,13.20
2019-03-28T06:50:30.399Z,13.70
2019-03-28T06:53:02.050Z,14.30
2019-03-28T06:55:33.299Z,14.70
2019-03-28T06:58:04.788Z,15.00
2019-03-28T07:00:36.058Z,15.30
2019-03-28T07:03:07.170Z,15.50
2019-03-28T07:05:38.375Z,15.60
2019-03-28T07:08:09.491Z,16.00
2019-03-28T07:10:40.930Z,16.20
2019-03-28T07:13:12.351Z,16.30
2019-03-28T07:15:43.506Z,16.20
2019-03-28T07:18:14.717Z,16.20
2019-03-28T07:20:46.012Z,16.10
2019-03-28T07:23:17.273Z,16.10
2019-03-28T07:25:48.451Z,16.00
2019-03-28T07:28:19.709Z,16.10
2019-03-28T07:30:50.863Z,16.10
2019-03-28T07:33:22.049Z,16.10
2019-03-28T07:35:53.161Z,16.00
2019-03-28T07:38:24.280Z,15.90
2019-03-28T07:40:55.471Z,16.00
2019-03-28T07:43:27.640Z,16.10
2019-03-28T07:45:58.747Z,16.30
2019-03-28T07:48:29.985Z,16.50
2019-03-28T07:51:01.239Z,16.60
2019-03-28T07:53:32.601Z,16.70
2019-03-28T07:56:03.841Z,16.80
2019-03-28T07:58:35.412Z,16.90
2019-03-28T08:01:06.874Z,17.20
2019-03-28T08:03:39.975Z,17.40
2019-03-28T08:06:12.713Z,17.50
2019-03-28T08:08:44.254Z,17.80
2019-03-28T08:11:15.760Z,18.00
2019-03-28T08:13:47.023Z,18.30
2019-03-28T08:16:18.162Z,18.60
2019-03-28T08:18:49.582Z,18.90
2019-03-28T08:21:21.181Z,19.10
2019-03-28T08:23:52.487Z,19.30
2019-03-28T08:26:23.939Z,19.30
2019-03-28T08:28:55.272Z,19.00
2019-03-28T08:31:26.419Z,18.50
2019-03-28T08:33:57.731Z,18.20
2019-03-28T08:36:29.782Z,17.90
2019-03-28T08:39:01.351Z,17.80
2019-03-28T08:41:34.273Z,18.00
2019-03-28T08:44:07.398Z,18.00
2019-03-28T08:46:38.884Z,17.80
2019-03-28T08:49:10.038Z,17.70
2019-03-28T08:51:41.704Z,17.50
2019-03-28T08:54:12.839Z,17.30
2019-03-28T08:56:44.428Z,17.00
2019-03-28T08:59:15.631Z,16.90
2019-03-28T09:01:46.850Z,16.90
2019-03-28T09:04:18.112Z,17.00
2019-03-28T09:06:49.282Z,17.30
2019-03-28T09:09:21.330Z,17.70
2019-03-28T09:11:53.847Z,17.90
2019-03-28T09:14:25.079Z,18.00
2019-03-28T09:16:56.473Z,18.00
2019-03-28T09:19:27.577Z,17.90
2019-03-28T09:21:58.798Z,17.70
2019-03-28T09:24:29.978Z,17.70
2019-03-28T09:27:01.106Z,17.70
2019-03-28T09:29:32.323Z,17.70
2019-03-28T09:32:03.847Z,17.70
2019-03-28T09:34:35.086Z,17.80
2019-03-28T09:37:06.302Z,18.00
2019-03-28T09:39:37.401Z,18.20
2019-03-28T09:42:08.507Z,18.50
2019-03-28T09:44:39.753Z,18.70
2019-03-28T09:47:11.058Z,18.70
2019-03-28T09:49:42.555Z,18.80
2019-03-28T09:52:13.628Z,19.00
2019-03-28T09:54:44.929Z,19.30
2019-03-28T09:57:16.244Z,19.60
2019-03-28T09:59:47.555Z,19.80
2019-03-28T10:02:18.693Z,20.00
2019-03-28T10:04:49.889Z,20.30
2019-03-28T10:07:21.139Z,20.40
2019-03-28T10:09:52.283Z,20.60
2019-03-28T10:12:23.491Z,20.90
2019-03-28T10:14:54.698Z,21.40
2019-03-28T10:17:25.856Z,21.90
2019-03-28T10:19:57.087Z,22.20
2019-03-28T10:22:28.312Z,22.00
2019-03-28T10:24:59.468Z,21.60
2019-03-28T10:27:30.620Z,21.20
2019-03-28T10:30:01.742Z,20.70
2019-03-28T10:32:33.991Z,20.40
2019-03-28T10:35:07.134Z,20.10
2019-03-28T10:37:50.090Z,20.00
2019-03-28T10:40:21.183Z,19.90
2019-03-28T10:42:52.370Z,20.00
2019-03-28T10:45:23.546Z,20.10
2019-03-28T10:47:54.800Z,20.10
2019-03-28T10:50:39.926Z,20.30
2019-03-28T10:52:58.640Z,20.60
2019-03-28T10:55:30.042Z,20.80
2019-03-28T10:58:01.184Z,21.10
2019-03-28T11:00:32.802Z,21.50
2019-03-28T11:03:04.794Z,21.90
2019-03-28T11:05:36.125Z,22.20
2019-03-28T11:08:07.575Z,22.40
2019-03-28T11:10:38.738Z,22.60
2019-03-28T11:13:10.024Z,22.90
2019-03-28T11:15:41.458Z,23.20
2019-03-28T11:18:13.737Z,23.50
2019-03-28T11:20:45.158Z,23.70
2019-03-28T11:23:16.690Z,23.80
2019-03-28T11:25:48.026Z,24.00
2019-03-28T11:28:19.506Z,23.80
2019-03-28T11:30:51.518Z,23.70
2019-03-28T11:33:22.696Z,23.80
2019-03-28T11:35:53.917Z,23.70
2019-03-28T11:38:25.146Z,23.40
2019-03-28T11:40:56.655Z,23.20
2019-03-28T11:43:27.811Z,22.80
2019-03-28T11:45:58.954Z,22.30
2019-03-28T11:48:30.043Z,21.70
2019-03-28T11:51:01.231Z,21.30
2019-03-28T11:53:32.396Z,20.90
2019-03-28T11:56:04.138Z,20.80
2019-03-28T11:58:35.301Z,20.70
2019-03-28T12:01:06.438Z,20.50
2019-03-28T12:03:37.772Z,20.40
2019-03-28T12:06:10.763Z,20.30
2019-03-28T12:08:41.997Z,20.30
2019-03-28T12:11:13.089Z,20.50
2019-03-28T12:13:45.312Z,20.70
2019-03-28T12:16:17.093Z,21.00
2019-03-28T12:18:48.587Z,21.10
2019-03-28T12:21:19.779Z,21.10
2019-03-28T12:23:50.895Z,21.10
2019-03-28T12:26:22.145Z,21.20
2019-03-28T12:28:54.295Z,21.20
2019-03-28T12:31:25.486Z,21.10
2019-03-28T12:33:57.173Z,21.00
2019-03-28T12:36:28.323Z,20.80
2019-03-28T12:38:59.391Z,20.40
2019-03-28T12:41:30.747Z,20.00
2019-03-28T12:44:02.034Z,19.60
2019-03-28T12:46:33.261Z,19.20
2019-03-28T12:49:04.471Z,18.90
2019-03-28T12:51:36.246Z,18.60
2019-03-28T12:54:07.526Z,18.20
2019-03-28T12:56:38.869Z,18.10
2019-03-28T12:59:09.990Z,18.00
2019-03-28T13:01:41.158Z,17.90
2019-03-28T13:04:12.331Z,17.90
2019-03-28T13:06:43.564Z,17.90
2019-03-28T13:09:15.675Z,17.90
2019-03-28T13:11:46.873Z,17.90
2019-03-28T13:14:18.058Z,17.70
2019-03-28T13:16:49.228Z,17.70
2019-03-28T13:19:20.376Z,17.90
2019-03-28T13:21:51.692Z,18.00
2019-03-28T13:24:22.925Z,18.10
2019-03-28T13:26:54.044Z,18.40
2019-03-28T13:29:25.312Z,18.50
2019-03-28T13:31:56.506Z,18.70
2019-03-28T13:34:27.576Z,18.80
2019-03-28T13:36:58.788Z,18.80
2019-03-28T13:39:30.030Z,18.80
2019-03-28T13:42:01.577Z,18.80
2019-03-28T13:44:32.757Z,18.90
2019-03-28T13:47:04.325Z,18.90
2019-03-28T13:49:35.435Z,18.70
2019-03-28T13:52:06.547Z,18.50
2019-03-28T13:54:37.618Z,18.30
2019-03-28T13:57:09.472Z,18.10
2019-03-28T13:59:40.611Z,17.90
2019-03-28T14:02:11.756Z,17.70
2019-03-28T14:04:43.171Z,17.50
2019-03-28T14:07:17.106Z,17.30
2019-03-28T14:09:47.147Z,17.20
2019-03-28T14:12:18.349Z,17.20
2019-03-28T14:14:49.571Z,17.10
2019-03-28T14:17:20.639Z,17.00
2019-03-28T14:19:51.953Z,16.80
2019-03-28T14:22:23.139Z,16.80
2019-03-28T14:24:54.709Z,16.80
2019-03-28T14:27:25.926Z,16.90
2019-03-28T14:29:57.017Z,17.00
2019-03-28T14:32:33.158Z,16.90
2019-03-28T14:35:05.881Z,16.90
2019-03-28T14:37:40.644Z,16.90
2019-03-28T14:40:11.488Z,16.80
2019-03-28T14:42:42.701Z,16.80
2019-03-28T14:45:14.228Z,16.80
2019-03-28T14:47:45.747Z,16.70
2019-03-28T14:50:21.093Z,16.60
2019-03-28T14:52:52.678Z,16.60
2019-03-28T14:55:24.057Z,16.60
2019-03-28T14:57:55.283Z,16.60
2019-03-28T15:00:47.325Z,16.70
2019-03-28T15:03:26.363Z,16.70
2019-03-28T15:05:52.393Z,16.70
2019-03-28T15:08:23.641Z,16.70
2019-03-28T15:10:54.858Z,16.70
2019-03-28T15:13:26.211Z,16.60
2019-03-28T15:15:57.406Z,16.50
2019-03-28T15:18:28.617Z,16.40
2019-03-28T15:21:00.504Z,16.40
2019-03-28T15:23:31.671Z,16.30
2019-03-28T15:26:02.793Z,16.20
2019-03-28T15:28:34.085Z,16.20
2019-03-28T15:31:05.523Z,16.20
2019-03-28T15:33:39.742Z,16.10
2019-03-28T15:36:09.535Z,16.10
2019-03-28T15:38:40.761Z,15.90
2019-03-28T15:41:13.106Z,15.80
2019-03-28T15:43:44.794Z,15.70
2019-03-28T15:46:15.910Z,15.60
2019-03-28T15:48:47.171Z,15.50
2019-03-28T15:51:18.357Z,15.40
2019-03-28T15:53:49.894Z,15.30
2019-03-28T15:56:21.059Z,15.20
2019-03-28T15:58:52.338Z,15.10
2019-03-28T16:01:23.637Z,15.10
2019-03-28T16:03:55.862Z,15.00
2019-03-28T16:06:26.970Z,15.00
2019-03-28T16:08:58.176Z,15.10
2019-03-28T16:11:29.462Z,15.10
2019-03-28T16:14:00.540Z,15.10
2019-03-28T16:16:31.713Z,15.10
2019-03-28T16:19:02.849Z,15.20
2019-03-28T16:21:34.451Z,15.20
2019-03-28T16:24:05.671Z,15.20
2019-03-28T16:26:37.850Z,15.20
2019-03-28T16:29:08.985Z,15.20
2019-03-28T16:31:40.124Z,15.10
2019-03-28T16:34:11.308Z,15.10
2019-03-28T16:36:42.579Z,15.10
2019-03-28T16:39:13.847Z,15.00
2019-03-28T16:41:45.075Z,15.00
2019-03-28T16:44:16.373Z,14.90
2019-03-28T16:46:47.926Z,14.80
2019-03-28T16:49:19.237Z,14.80
2019-03-28T16:51:51.811Z,14.70
2019-03-28T16:54:23.299Z,14.60
2019-03-28T16:56:54.475Z,14.50
2019-03-28T16:59:25.748Z,14.50
2019-03-28T17:01:56.921Z,14.50
2019-03-28T17:04:28.230Z,14.40
2019-03-28T17:07:00.512Z,14.40
2019-03-28T17:09:32.386Z,14.30
2019-03-28T17:12:03.615Z,14.20
2019-03-28T17:14:34.769Z,14.20
2019-03-28T17:17:05.918Z,14.10
2019-03-28T17:19:37.227Z,14.10
2019-03-28T17:22:09.543Z,14.00
2019-03-28T17:24:42.011Z,14.00
2019-03-28T17:27:13.106Z,13.90
2019-03-28T17:29:44.182Z,13.90
2019-03-28T17:32:15.538Z,13.90
2019-03-28T17:34:46.718Z,13.90
2019-03-28T17:37:18.924Z,13.90
2019-03-28T17:39:50.139Z,13.90
2019-03-28T17:42:22.431Z,13.80
2019-03-28T17:44:53.611Z,13.80
2019-03-28T17:47:24.844Z,13.80
2019-03-28T17:49:55.905Z,13.70
2019-03-28T17:52:27.686Z,13.70
2019-03-28T17:54:59.067Z,13.70
2019-03-28T17:57:30.318Z,13.60
2019-03-28T18:00:01.637Z,13.60
2019-03-28T18:02:34.175Z,13.60
2019-03-28T18:05:09.700Z,13.50
2019-03-28T18:07:38.544Z,13.50
2019-03-28T18:10:09.969Z,13.50
2019-03-28T18:12:41.050Z,13.50
2019-03-28T18:15:12.397Z,13.40
2019-03-28T18:17:43.632Z,13.40
2019-03-28T18:20:15.150Z,13.40
2019-03-28T18:22:46.293Z,13.40
2019-03-28T18:25:17.409Z,13.30
2019-03-28T18:27:48.551Z,13.30
2019-03-28T18:30:20.470Z,13.30
2019-03-28T18:32:52.157Z,13.20
2019-03-28T18:35:23.275Z,13.20
2019-03-28T18:37:54.486Z,13.10
2019-03-28T18:40:25.776Z,13.10
2019-03-28T18:42:57.972Z,13.10
2019-03-28T18:45:29.359Z,13.10
2019-03-28T18:48:00.504Z,13.10
2019-03-28T18:50:31.738Z,13.10
2019-03-28T18:53:02.987Z,13.10
2019-03-28T18:55:34.621Z,13.00
2019-03-28T18:58:05.947Z,13.00
2019-03-28T19:00:38.344Z,13.00
2019-03-28T19:03:09.577Z,12.90
2019-03-28T19:05:41.245Z,12.90
2019-03-28T19:08:12.445Z,12.90
2019-03-28T19:10:43.646Z,12.80
2019-03-28T19:13:15.433Z,12.80
2019-03-28T19:15:47.968Z,12.80
2019-03-28T19:18:19.205Z,12.80
2019-03-28T19:20:50.303Z,12.80
2019-03-28T19:23:21.493Z,12.80
2019-03-28T19:25:52.604Z,12.80
2019-03-28T19:28:29.263Z,12.80
2019-03-28T19:30:56.761Z,12.70
2019-03-28T19:33:28.608Z,12.70
2019-03-28T19:36:01.476Z,12.70
2019-03-28T19:38:34.105Z,12.70
2019-03-28T19:41:05.546Z,12.70
2019-03-28T19:43:37.743Z,12.70
2019-03-28T19:46:09.326Z,12.70
2019-03-28T19:48:40.915Z,12.70
2019-03-28T19:51:12.097Z,12.60
2019-03-28T19:53:43.930Z,12.60
2019-03-28T19:56:15.412Z,12.60
2019-03-28T19:58:46.632Z,12.50
2019-03-28T20:01:17.675Z,12.50
2019-03-28T20:03:48.789Z,12.40
2019-03-28T20:06:22.326Z,12.40
2019-03-28T20:08:52.798Z,12.30
2019-03-28T20:11:23.930Z,12.20
2019-03-28T20:13:55.253Z,12.20
2019-03-28T20:16:26.398Z,12.00
2019-03-28T20:18:57.999Z,11.90
2019-03-28T20:21:29.075Z,11.80
2019-03-28T20:24:00.286Z,11.70
2019-03-28T20:26:31.517Z,11.60
2019-03-28T20:29:03.203Z,11.50
2019-03-28T20:31:34.458Z,11.40
2019-03-28T20:34:06.904Z,11.40
2019-03-28T20:36:42.358Z,11.30
2019-03-28T20:39:11.603Z,11.20
2019-03-28T20:41:43.052Z,11.20
2019-03-28T20:44:14.257Z,11.10
2019-03-28T20:46:45.526Z,11.00
2019-03-28T20:49:17.300Z,11.00
2019-03-28T20:51:48.935Z,10.90
2019-03-28T20:54:20.354Z,10.80
2019-03-28T20:56:53.263Z,10.60
2019-03-28T20:59:24.792Z,10.50
2019-03-28T21:01:57.880Z,10.40
2019-03-28T21:04:31.521Z,10.30
2019-03-28T21:07:02.437Z,10.20
2019-03-28T21:09:34.043Z,10.10
2019-03-28T21:12:06.007Z,10.10
2019-03-28T21:14:37.525Z,10.00
2019-03-28T21:17:09.373Z,9.90
2019-03-28T21:19:41.172Z,9.90
2019-03-28T21:22:12.492Z,9.80
2019-03-28T21:24:43.732Z,9.80
2019-03-28T21:27:14.992Z,9.70
2019-03-28T21:29:49.127Z,9.70
2019-03-28T21:32:19.176Z,9.60
2019-03-28T21:34:51.750Z,9.60
2019-03-28T21:37:23.321Z,9.60
2019-03-28T21:39:54.757Z,9.50
2019-03-28T21:42:25.920Z,9.50
2019-03-28T21:44:58.528Z,9.40
2019-03-28T21:47:29.942Z,9.40
2019-03-28T21:50:01.767Z,9.30
2019-03-28T21:52:33.089Z,9.20
2019-03-28T21:55:04.583Z,9.20
2019-03-28T21:57:35.840Z,9.10
2019-03-28T22:00:08.345Z,9.10
2019-03-28T22:02:39.628Z,9.10
2019-03-28T22:05:10.827Z,9.10
2019-03-28T22:07:42.249Z,9.00
2019-03-28T22:10:13.937Z,9.00
2019-03-28T22:12:45.156Z,9.00
2019-03-28T22:15:16.246Z,9.00
2019-03-28T22:17:47.406Z,8.90
2019-03-28T22:20:18.604Z,8.90
2019-03-28T22:22:49.843Z,8.80
2019-03-28T22:25:21.082Z,8.80
2019-03-28T22:27:52.209Z,8.80
2019-03-28T22:30:23.414Z,8.80
2019-03-28T22:32:54.539Z,8.70
2019-03-28T22:35:25.972Z,8.70
2019-03-28T22:37:57.304Z,8.60
2019-03-28T22:40:28.515Z,8.60
2019-03-28T22:42:59.755Z,8.60
2019-03-28T22:45:30.852Z,8.60
2019-03-28T22:48:10.699Z,8.50
2019-03-28T22:50:35.010Z,8.50
2019-03-28T22:53:06.302Z,8.50
2019-03-28T22:55:37.758Z,8.40
2019-03-28T22:58:19.990Z,8.40
2019-03-28T23:00:55.337Z,8.40
2019-03-28T23:03:28.051Z,8.40
2019-03-28T23:05:59.187Z,8.30
2019-03-28T23:08:30.765Z,8.30
2019-03-28T23:11:01.899Z,8.20
2019-03-28T23:13:33.127Z,8.20
2019-03-28T23:16:04.478Z,8.20
2019-03-28T23:18:35.731Z,8.10
2019-03-28T23:21:06.992Z,8.10
2019-03-28T23:23:38.309Z,8.00
2019-03-28T23:26:09.563Z,8.00
2019-03-28T23:28:40.787Z,7.90
2019-03-28T23:31:12.034Z,7.90
2019-03-28T23:33:43.368Z,7.80
2019-03-28T23:36:14.441Z,7.80
2019-03-28T23:38:45.935Z,7.70
2019-03-28T23:41:17.462Z,7.70
2019-03-28T23:43:48.796Z,7.70
2019-03-28T23:46:19.882Z,7.70
2019-03-28T23:48:51.134Z,7.70
2019-03-28T23:51:22.314Z,7.80
2019-03-28T23:53:53.429Z,7.90
2019-03-28T23:56:24.677Z,7.90
2019-03-28T23:58:55.860Z,7.90
